Grayson, Oklahoma
Current Conditions -  °F | °C
As of 6:55 PM on Saturday 22 Nov 2014 (Local Time) from KOKM Reporting Station
Light Rain Light Rain  
Wind Chill: 55°   Ceiling: 8500
Heat Index: 55°   Visibility: 7mi
Dew Point: 54°   Wind: 14mph
Humidity: 98%   Direction: 170°S
Pressure: 29.87"   Gusts: NA
Location:  35.4729°N, 95.9709°W
Report Text: KOKM 230055Z AUTO 17012KT 7SM -RA SCT070 OVC085 13/12 A2987 RMK AO2 P0007 T01250122
Loading
Personal Weather Stations






























Interactive Weather Map New forecast layout! Learn more

10-Day Weather Forecast

Advertisements
Track Severe Weather on mobile